createdAt,value
2022-11-22T06:14:45.906Z,0.857143
2022-11-22T06:15:45.940Z,0.857143
2022-11-22T06:16:46.002Z,0.857143
2022-11-22T06:17:46.011Z,1.71429
2022-11-22T06:18:46.045Z,1.71429
2022-11-22T06:19:46.066Z,1.71429
2022-11-22T06:20:46.102Z,2.5
2022-11-22T06:21:46.163Z,2.5
2022-11-22T06:22:46.174Z,3.35714
2022-11-22T06:23:46.209Z,3.35714
2022-11-22T06:24:46.241Z,4.21429
2022-11-22T06:25:46.265Z,5
2022-11-22T06:26:46.316Z,5.85714
2022-11-22T06:27:46.322Z,6.71429
2022-11-22T06:28:46.351Z,7.5
2022-11-22T06:29:46.383Z,10
2022-11-22T06:30:46.416Z,10
2022-11-22T06:31:46.446Z,10.8571
2022-11-22T06:32:46.485Z,14.2143
2022-11-22T06:33:46.517Z,14.2143
2022-11-22T06:34:46.554Z,15.8571
2022-11-22T06:35:46.591Z,16.7143
2022-11-22T06:36:46.623Z,17.5
2022-11-22T06:37:46.656Z,18.3571
2022-11-22T06:38:46.681Z,19.2143
2022-11-22T06:39:46.713Z,21.7143
2022-11-22T06:40:46.746Z,24.2143
2022-11-22T06:41:46.771Z,24.2143
2022-11-22T06:42:46.810Z,26.7143
2022-11-22T06:43:48.658Z,27.5
2022-11-22T06:44:46.863Z,27.5
2022-11-22T06:45:46.892Z,33.3571
2022-11-22T06:46:46.924Z,31.7143
2022-11-22T06:47:46.960Z,34.2143
2022-11-22T06:48:47.003Z,36.7143
2022-11-22T06:49:47.037Z,37.5
2022-11-22T06:50:47.063Z,37.5
2022-11-22T06:51:47.082Z,40
2022-11-22T06:52:47.113Z,43.3571
2022-11-22T06:53:48.271Z,47.5
2022-11-22T06:54:47.172Z,48.3571
2022-11-22T06:55:51.344Z,53.3571
2022-11-22T06:56:47.231Z,60
2022-11-22T06:57:47.269Z,58.3571
2022-11-22T06:58:47.308Z,65
2022-11-22T06:59:47.341Z,68.3571
2022-11-22T07:00:47.402Z,71.7143
2022-11-22T07:01:47.469Z,79.2143
2022-11-22T07:02:47.425Z,81.7143
2022-11-22T07:03:47.472Z,92.5
2022-11-22T07:05:17.252Z,90.8571
2022-11-22T07:05:47.513Z,92.5
2022-11-22T07:06:47.544Z,100.857
2022-11-22T07:07:47.609Z,100
2022-11-22T07:08:47.604Z,106.714
2022-11-22T07:09:50.959Z,107.5
2022-11-22T07:10:47.670Z,109.214
2022-11-22T07:11:47.732Z,108.357
2022-11-22T07:12:47.723Z,117.5
2022-11-22T07:13:47.748Z,120.857
2022-11-22T07:14:47.779Z,121.714
2022-11-22T07:15:47.826Z,127.5
2022-11-22T07:16:47.852Z,137.5
2022-11-22T07:17:47.881Z,141.714
2022-11-22T07:18:47.897Z,153.357
2022-11-22T07:19:47.922Z,163.357
2022-11-22T07:20:47.967Z,176.714
2022-11-22T07:21:47.980Z,176.714
2022-11-22T07:22:48.015Z,189.214
2022-11-22T07:23:48.059Z,201.714
2022-11-22T07:24:48.075Z,210.857
2022-11-22T07:25:48.112Z,218.357
2022-11-22T07:26:48.138Z,225.857
2022-11-22T07:27:48.168Z,247.5
2022-11-22T07:28:48.196Z,254.214
2022-11-22T07:29:48.229Z,275
2022-11-22T07:30:48.249Z,275.857
2022-11-22T07:31:48.276Z,295
2022-11-22T07:32:48.305Z,324.214
2022-11-22T07:33:48.359Z,364.214
2022-11-22T07:34:48.377Z,383.357
2022-11-22T07:35:48.403Z,405.857
2022-11-22T07:36:48.443Z,421.714
2022-11-22T07:37:48.470Z,426.714
2022-11-22T07:38:48.521Z,463.357
2022-11-22T07:39:48.534Z,480.857
2022-11-22T07:40:48.571Z,510.857
2022-11-22T07:41:48.577Z,500.857
2022-11-22T07:42:48.599Z,539.214
2022-11-22T07:43:48.623Z,559.214
2022-11-22T07:44:48.647Z,586.714
2022-11-22T07:45:48.709Z,589.214
2022-11-22T07:46:48.713Z,603.357
2022-11-22T07:47:48.734Z,620.857
2022-11-22T07:48:48.768Z,674.214
2022-11-22T07:49:48.793Z,679.214
2022-11-22T07:50:48.827Z,701.714
2022-11-22T07:51:48.852Z,689.214
2022-11-22T07:52:48.880Z,719.214
2022-11-22T07:53:48.908Z,795.857
2022-11-22T07:54:48.932Z,768.357
2022-11-22T07:55:48.961Z,847.5
2022-11-22T07:56:48.996Z,945
2022-11-22T07:57:49.026Z,848.357
2022-11-22T07:58:49.065Z,975
2022-11-22T07:59:49.087Z,842.5
2022-11-22T08:00:49.118Z,847.5
2022-11-22T08:01:49.247Z,876.714
2022-11-22T08:02:49.179Z,791.714
2022-11-22T08:03:49.211Z,899.214
2022-11-22T08:04:49.238Z,854.214
2022-11-22T08:05:49.269Z,920.857
2022-11-22T08:06:49.319Z,886.714
2022-11-22T08:07:49.402Z,843.357
2022-11-22T08:08:49.358Z,877.5
2022-11-22T08:09:49.389Z,890.857
2022-11-22T08:10:49.426Z,864.214
2022-11-22T08:11:49.447Z,885
2022-11-22T08:12:49.503Z,891.714
2022-11-22T08:13:49.534Z,899.214
2022-11-22T08:14:49.555Z,867.5
2022-11-22T08:15:49.703Z,907.5
2022-11-22T08:16:49.609Z,910.857
2022-11-22T08:17:49.643Z,925.857
2022-11-22T08:18:49.676Z,955.857
2022-11-22T08:19:49.711Z,1006.71
2022-11-22T08:20:49.748Z,945
2022-11-22T08:21:52.724Z,1034.21
2022-11-22T08:22:49.807Z,1099.21
2022-11-22T08:23:49.838Z,999.214
2022-11-22T08:24:49.858Z,960
2022-11-22T08:25:49.892Z,970.857
2022-11-22T08:26:49.924Z,984.214
2022-11-22T08:27:49.953Z,892.5
2022-11-22T08:28:49.996Z,876.714
2022-11-22T08:29:50.016Z,922.5
2022-11-22T08:30:50.049Z,930
2022-11-22T08:31:50.077Z,927.5
2022-11-22T08:32:50.110Z,940
2022-11-22T08:33:50.149Z,898.357
2022-11-22T08:34:50.173Z,967.5
2022-11-22T08:35:50.226Z,946.714
2022-11-22T08:36:50.234Z,977.5
2022-11-22T08:37:50.270Z,973.357
2022-11-22T08:38:50.300Z,994.214
2022-11-22T08:39:50.330Z,1002.5
2022-11-22T08:40:50.409Z,1014.21
2022-11-22T08:41:50.395Z,1013.36
2022-11-22T08:42:50.434Z,1060
2022-11-22T08:43:50.455Z,1124.21
2022-11-22T08:44:50.488Z,1095
2022-11-22T08:45:50.534Z,1073.36
2022-11-22T08:46:50.539Z,1098.36
2022-11-22T08:47:50.569Z,1126.71
2022-11-22T08:48:50.599Z,1200.86
2022-11-22T08:49:50.624Z,1244.21
2022-11-22T08:50:50.680Z,1199.21
2022-11-22T08:51:50.694Z,1253.36
2022-11-22T08:52:50.722Z,1335
2022-11-22T08:53:50.751Z,1266.71
2022-11-22T08:54:50.789Z,1343.36
2022-11-22T08:55:50.817Z,1235.86
2022-11-22T08:56:50.852Z,1350.86
2022-11-22T08:57:50.901Z,1320
2022-11-22T08:58:51.013Z,1325.86
2022-11-22T08:59:50.949Z,1341.71
2022-11-22T09:00:50.984Z,1377.5
2022-11-22T09:01:51.100Z,1309.21
2022-11-22T09:02:51.063Z,1264.21
2022-11-22T09:03:51.078Z,1260.86
2022-11-22T09:04:51.109Z,1343.36
2022-11-22T09:09:02.764Z,1315.86
2022-11-22T09:09:51.264Z,1377.5
2022-11-22T09:10:51.303Z,1227.5
2022-11-22T09:11:51.327Z,1180
2022-11-22T09:12:51.369Z,1205
2022-11-22T09:13:51.393Z,1238.36
2022-11-22T09:14:51.426Z,1068.36
2022-11-22T09:15:51.456Z,1127.5
2022-11-22T09:16:51.491Z,1066.71
2022-11-22T09:17:51.522Z,1015.86
2022-11-22T09:18:51.571Z,1065
2022-11-22T09:19:51.594Z,1088.36
2022-11-22T09:20:51.618Z,995.857
2022-11-22T09:21:51.654Z,945.857
2022-11-22T09:22:51.690Z,903.357
2022-11-22T09:23:51.723Z,968.357
2022-11-22T09:24:51.746Z,930
2022-11-22T09:25:51.787Z,903.357
2022-11-22T09:26:51.811Z,923.357
2022-11-22T09:27:51.870Z,954.214
2022-11-22T09:28:51.866Z,1053.36
2022-11-22T09:29:51.916Z,1071.71
2022-11-22T09:30:51.943Z,1086.71
2022-11-22T09:31:51.980Z,1061.71
2022-11-22T09:32:52.006Z,1102.5
2022-11-22T09:33:52.040Z,1121.71
2022-11-22T09:34:52.068Z,1059.21
2022-11-22T09:35:52.100Z,1156.71
2022-11-22T09:36:52.120Z,1219.21
2022-11-22T09:37:52.146Z,1209.21
2022-11-22T09:38:52.181Z,1187.5
2022-11-22T09:39:52.234Z,1200
2022-11-22T09:40:52.250Z,1195.86
2022-11-22T09:41:52.284Z,1250.86
2022-11-22T09:42:52.307Z,1408.36
2022-11-22T09:43:52.358Z,1404.21
2022-11-22T09:44:52.370Z,1375.86
2022-11-22T09:45:52.400Z,1472.5
2022-11-22T09:46:52.435Z,1500.86
2022-11-22T09:47:52.458Z,1580.86
2022-11-22T09:48:52.479Z,1662.5
2022-11-22T09:49:52.537Z,1590.86
2022-11-22T09:50:52.544Z,1560.86
2022-11-22T09:51:52.582Z,1403.36
2022-11-22T09:52:52.609Z,1352.5
2022-11-22T09:53:52.658Z,1371.71
2022-11-22T09:54:52.664Z,1433.36
2022-11-22T09:55:52.697Z,1376.71
2022-11-22T09:56:52.742Z,1315
2022-11-22T09:57:52.755Z,1324.21
2022-11-22T09:58:52.783Z,1391.71
2022-11-22T09:59:52.819Z,1360
2022-11-22T10:00:52.891Z,1537.5
2022-11-22T10:01:52.886Z,1559.21
2022-11-22T10:03:00.353Z,1530
2022-11-22T10:03:52.943Z,1517.5
2022-11-22T10:04:52.978Z,1563.36
2022-11-22T10:05:53.003Z,1575.86
2022-11-22T10:06:53.039Z,1515.86
2022-11-22T10:07:53.088Z,1533.36
2022-11-22T10:08:53.091Z,1489.21
2022-11-22T10:09:53.124Z,1592.5
2022-11-22T10:10:53.164Z,1585.86
2022-11-22T10:11:53.185Z,1389.21
2022-11-22T10:12:53.220Z,1432.5
2022-11-22T10:13:53.256Z,1423.36
2022-11-22T10:14:53.293Z,1466.71
2022-11-22T10:15:53.343Z,1390.86
2022-11-22T10:16:53.340Z,1320
2022-11-22T10:17:53.383Z,1353.36
2022-11-22T10:18:53.415Z,1306.71
2022-11-22T10:19:53.438Z,1314.21
2022-11-22T10:20:53.496Z,1432.5
2022-11-22T10:21:53.520Z,1254.21
2022-11-22T10:22:53.563Z,1405.86
2022-11-22T10:23:53.572Z,1363.36
2022-11-22T10:24:53.634Z,1341.71
2022-11-22T10:25:53.643Z,1295.86
2022-11-22T10:26:53.671Z,1364.21
2022-11-22T10:27:59.063Z,1352.5
2022-11-22T10:28:53.740Z,1390
2022-11-22T10:29:53.759Z,1415
2022-11-22T10:30:53.782Z,1421.71
2022-11-22T10:31:53.817Z,1320.86
2022-11-22T10:32:53.849Z,1305
2022-11-22T10:33:53.882Z,1340.86
2022-11-22T10:34:53.910Z,1300
2022-11-22T10:35:53.946Z,1193.36
2022-11-22T10:36:53.995Z,1180
2022-11-22T10:37:54.030Z,1142.5
2022-11-22T10:38:54.030Z,1155
2022-11-22T10:39:54.085Z,1111.71
2022-11-22T10:40:54.097Z,1175.86
2022-11-22T10:41:54.132Z,1225
2022-11-22T10:42:54.155Z,1281.71
2022-11-22T10:43:54.184Z,1293.36
2022-11-22T10:44:54.227Z,1369.21
2022-11-22T10:45:54.250Z,1535.86
2022-11-22T10:46:56.897Z,1479.21
2022-11-22T10:47:54.319Z,1512.5
2022-11-22T10:48:54.362Z,1440
2022-11-22T10:49:54.412Z,1308.36
2022-11-22T10:50:54.427Z,1407.5
2022-11-22T10:51:54.468Z,1260
2022-11-22T10:52:54.496Z,1177.5
2022-11-22T10:53:58.885Z,1147.5
2022-11-22T10:54:54.547Z,1108.36
2022-11-22T10:55:54.579Z,1086.71
2022-11-22T10:56:54.603Z,1052.5
2022-11-22T10:57:54.650Z,1074.21
2022-11-22T10:58:54.667Z,1010.86
2022-11-22T10:59:54.700Z,1036.71
2022-11-22T11:00:54.743Z,1055.86
2022-11-22T11:01:54.774Z,1074.21
2022-11-22T11:02:54.791Z,956.714
2022-11-22T11:03:54.816Z,980
2022-11-22T11:04:54.851Z,1060
2022-11-22T11:06:22.817Z,1031.71
2022-11-22T11:07:12.267Z,1035
2022-11-22T11:08:04.102Z,1080.86
2022-11-22T11:09:47.658Z,1093.36
2022-11-22T11:10:10.774Z,1035.86
2022-11-22T11:10:55.037Z,1164.21
2022-11-22T11:11:55.087Z,1150
2022-11-22T11:12:55.107Z,1150.86
2022-11-22T11:13:55.136Z,1170
2022-11-22T11:14:55.162Z,1255.86
2022-11-22T11:15:56.356Z,1226.71
2022-11-22T11:16:55.229Z,1158.36
2022-11-22T11:17:55.262Z,1133.36
2022-11-22T11:18:55.293Z,1159.21
2022-11-22T11:19:55.327Z,1186.71
2022-11-22T11:20:55.359Z,1170.86
2022-11-22T11:21:55.383Z,1083.36
2022-11-22T11:23:14.140Z,1081.71
2022-11-22T11:23:55.448Z,998.357
2022-11-22T11:24:55.474Z,1066.71
2022-11-22T11:25:55.496Z,1004.21
2022-11-22T11:26:55.522Z,961.714
2022-11-22T11:27:55.553Z,962.5
2022-11-22T11:28:55.576Z,948.357
2022-11-22T11:29:55.608Z,900
2022-11-22T11:30:55.643Z,870.857
2022-11-22T11:31:55.706Z,879.214
2022-11-22T11:32:55.732Z,847.5
2022-11-22T11:33:55.743Z,836.714
2022-11-22T11:34:55.774Z,843.357
2022-11-22T11:35:55.821Z,823.357
2022-11-22T11:36:55.841Z,789.214
2022-11-22T11:37:55.868Z,830.857
2022-11-22T11:38:55.891Z,785
2022-11-22T11:39:55.922Z,842.5
2022-11-22T11:40:55.951Z,788.357
2022-11-22T11:41:55.983Z,795.857
2022-11-22T11:42:56.015Z,794.214
2022-11-22T11:43:56.052Z,791.714
2022-11-22T11:44:56.073Z,792.5
2022-11-22T11:45:56.103Z,772.5
2022-11-22T11:46:56.140Z,713.357
2022-11-22T11:47:56.160Z,711.714
2022-11-22T11:48:56.187Z,745
2022-11-22T11:49:56.216Z,705.857
2022-11-22T11:50:56.254Z,700.857
2022-11-22T11:51:56.289Z,710.857
2022-11-22T11:52:56.310Z,784.214
2022-11-22T11:53:56.350Z,676.714
2022-11-22T11:54:56.380Z,735.857
2022-11-22T11:55:56.403Z,739.214
2022-11-22T11:56:56.438Z,738.357
2022-11-22T11:57:56.471Z,755.857
2022-11-22T11:58:56.510Z,720
2022-11-22T11:59:56.534Z,680.857
2022-11-22T12:00:56.564Z,721.714
2022-11-22T12:01:56.675Z,725
2022-11-22T12:02:56.625Z,714.214
2022-11-22T12:03:56.664Z,706.714
2022-11-22T12:04:56.695Z,690
2022-11-22T12:05:56.725Z,687.5
2022-11-22T12:07:00.186Z,733.357
2022-11-22T12:07:56.874Z,755
2022-11-22T12:08:56.888Z,705.857
2022-11-22T12:09:56.861Z,775.857
2022-11-22T12:10:56.903Z,735.857
2022-11-22T12:11:56.922Z,690
2022-11-22T12:13:00.193Z,731.714
2022-11-22T12:14:19.171Z,749.214
2022-11-22T12:15:10.844Z,728.357
2022-11-22T12:15:57.055Z,774.214
2022-11-22T12:16:57.063Z,724.214
2022-11-22T12:17:57.099Z,747.5
2022-11-22T12:18:57.134Z,776.714
2022-11-22T12:19:57.164Z,788.357
2022-11-22T12:20:57.187Z,857.5
2022-11-22T12:21:57.215Z,787.5
2022-11-22T12:22:57.250Z,833.357
2022-11-22T12:24:13.503Z,782.5
2022-11-22T12:25:57.349Z,969.214
2022-11-22T12:26:57.384Z,847.5
2022-11-22T12:27:57.424Z,801.714
2022-11-22T12:28:57.452Z,850
2022-11-22T12:29:57.491Z,781.714
2022-11-22T12:30:57.522Z,805
2022-11-22T12:31:57.549Z,797.5
2022-11-22T12:32:57.584Z,850
2022-11-22T12:33:57.624Z,767.5
2022-11-22T12:34:57.649Z,810
2022-11-22T12:35:57.684Z,775.857
2022-11-22T12:36:57.728Z,764.214
2022-11-22T12:37:57.749Z,772.5
2022-11-22T12:38:57.786Z,691.714
2022-11-22T12:39:57.825Z,718.357
2022-11-22T12:40:57.839Z,731.714
2022-11-22T12:41:57.881Z,736.714
2022-11-22T12:42:57.914Z,781.714
2022-11-22T12:43:57.952Z,781.714
2022-11-22T12:44:57.999Z,747.5
2022-11-22T12:45:58.013Z,800.857
2022-11-22T12:46:58.038Z,821.714
2022-11-22T12:47:58.070Z,859.214
2022-11-22T12:48:58.102Z,809.214
2022-11-22T12:49:58.149Z,863.357
2022-11-22T12:50:58.163Z,853.357
2022-11-22T12:51:58.212Z,785
2022-11-22T12:52:58.228Z,840
2022-11-22T12:53:58.247Z,872.5
2022-11-22T12:54:58.279Z,888.357
2022-11-22T12:55:58.312Z,800
2022-11-22T12:56:58.344Z,830
2022-11-22T12:57:58.387Z,805.857
2022-11-22T12:58:58.422Z,822.5
2022-11-22T12:59:58.457Z,810
2022-11-22T13:00:58.502Z,810.857
2022-11-22T13:01:58.516Z,845.857
2022-11-22T13:02:59.272Z,816.714
2022-11-22T13:03:58.583Z,830.857
2022-11-22T13:04:58.599Z,755.857
2022-11-22T13:05:58.640Z,706.714
2022-11-22T13:06:58.650Z,756.714
2022-11-22T13:07:58.795Z,742.5
2022-11-22T13:09:03.512Z,689.214
2022-11-22T13:09:58.738Z,689.214
2022-11-22T13:10:58.762Z,737.5
2022-11-22T13:11:58.792Z,762.5
2022-11-22T13:12:58.831Z,736.714
2022-11-22T13:13:58.853Z,722.5
2022-11-22T13:14:58.895Z,779.214
2022-11-22T13:15:58.936Z,730.857
2022-11-22T13:16:58.977Z,822.5
2022-11-22T13:17:58.988Z,819.214
2022-11-22T13:18:59.015Z,807.5
2022-11-22T13:19:59.047Z,858.357
2022-11-22T13:20:59.077Z,795
2022-11-22T13:21:59.139Z,787.5
2022-11-22T13:22:59.146Z,746.714
2022-11-22T13:23:59.178Z,738.357
2022-11-22T13:24:59.207Z,665.857
2022-11-22T13:25:59.234Z,665
2022-11-22T13:26:59.289Z,634.214
2022-11-22T13:27:59.298Z,614.214
2022-11-22T13:28:59.332Z,637.5
2022-11-22T13:29:59.368Z,588.357
2022-11-22T13:30:59.390Z,539.214
2022-11-22T13:31:59.449Z,566.714
2022-11-22T13:32:59.451Z,606.714
2022-11-22T13:33:59.489Z,568.357
2022-11-22T13:34:59.509Z,579.214
2022-11-22T13:35:59.545Z,568.357
2022-11-22T13:37:01.801Z,648.357
2022-11-22T13:37:59.606Z,608.357
2022-11-22T13:38:59.651Z,600.857
2022-11-22T13:39:59.657Z,579.214
2022-11-22T13:40:59.694Z,579.214
2022-11-22T13:41:59.728Z,620.857
2022-11-22T13:42:59.769Z,604.214
2022-11-22T13:43:59.788Z,582.5
2022-11-22T13:44:59.817Z,574.214
2022-11-22T13:45:59.841Z,540.857
2022-11-22T13:46:59.869Z,562.5
2022-11-22T13:48:00.956Z,528.357
2022-11-22T13:48:59.940Z,521.714
2022-11-22T13:49:59.963Z,470
2022-11-22T13:51:00.000Z,417.5
2022-11-22T13:52:00.034Z,453.357
2022-11-22T13:53:00.096Z,508.357
2022-11-22T13:54:00.168Z,537.5
2022-11-22T13:55:00.300Z,484.214
2022-11-22T13:56:00.177Z,417.5
2022-11-22T13:57:00.183Z,417.5
2022-11-22T13:58:00.211Z,495
2022-11-22T13:59:00.242Z,538.357
2022-11-22T14:00:00.290Z,518.357
2022-11-22T14:01:00.429Z,469.214
2022-11-22T14:02:00.339Z,405.857
2022-11-22T14:03:00.366Z,404.214
2022-11-22T14:04:00.438Z,405.857
2022-11-22T14:05:00.431Z,381.714
2022-11-22T14:06:00.484Z,390
2022-11-22T14:07:00.510Z,411.714
2022-11-22T14:08:00.527Z,397.5
2022-11-22T14:09:00.589Z,378.357
2022-11-22T14:10:00.588Z,342.5
2022-11-22T14:11:00.625Z,302.5
2022-11-22T14:12:00.644Z,297.5
2022-11-22T14:13:00.670Z,269.214
2022-11-22T14:14:00.703Z,250.857
2022-11-22T14:15:00.735Z,239.214
2022-11-22T14:16:00.773Z,260
2022-11-22T14:17:00.797Z,269.214
2022-11-22T14:18:00.835Z,285
2022-11-22T14:19:00.868Z,254.214
2022-11-22T14:20:00.932Z,250.857
2022-11-22T14:21:00.962Z,236.714
2022-11-22T14:22:00.973Z,245
2022-11-22T14:23:00.995Z,244.214
2022-11-22T14:24:01.032Z,241.714
2022-11-22T14:25:01.063Z,234.214
2022-11-22T14:26:01.155Z,202.5
2022-11-22T14:27:01.122Z,183.357
2022-11-22T14:28:01.160Z,180.857
2022-11-22T14:29:01.198Z,190
2022-11-22T14:30:01.219Z,187.5
2022-11-22T14:31:01.280Z,189.214
2022-11-22T14:32:01.294Z,176.714
2022-11-22T14:33:01.321Z,167.5
2022-11-22T14:34:01.347Z,155.857
2022-11-22T14:35:01.376Z,146.714
2022-11-22T14:36:01.429Z,154.214
2022-11-22T14:37:01.435Z,150.857
2022-11-22T14:38:01.462Z,143.357
2022-11-22T14:39:01.494Z,124.214
2022-11-22T14:40:01.509Z,119.214
2022-11-22T14:41:01.561Z,120
2022-11-22T14:42:01.568Z,113.357
2022-11-22T14:43:01.608Z,106.714
2022-11-22T14:44:01.641Z,106.714
2022-11-22T14:45:01.675Z,91.7143
2022-11-22T14:46:01.723Z,87.5
2022-11-22T14:47:01.733Z,84.2143
2022-11-22T14:48:01.764Z,75
2022-11-22T14:49:01.783Z,70
2022-11-22T14:50:01.813Z,66.7143
2022-11-22T14:51:01.844Z,65.8571
2022-11-22T14:52:01.896Z,64.2143
2022-11-22T14:53:01.905Z,56.7143
2022-11-22T14:54:01.952Z,54.2143
2022-11-22T14:55:01.981Z,50
2022-11-22T14:56:02.036Z,48.3571
2022-11-22T14:57:04.511Z,46.7143
2022-11-22T14:58:02.090Z,43.3571
2022-11-22T14:59:02.108Z,39.2143
2022-11-22T15:00:02.141Z,39.2143
2022-11-22T15:01:02.181Z,40
2022-11-22T15:02:02.281Z,34.2143
2022-11-22T15:03:02.237Z,27.5
2022-11-22T15:09:12.788Z,24.2143
2022-11-22T15:09:12.943Z,22.5
2022-11-22T15:09:13.693Z,23.3571
2022-11-22T15:09:18.107Z,23.3571
2022-11-22T15:09:19.186Z,23.3571
2022-11-22T15:09:20.508Z,22.5
2022-11-22T15:10:02.818Z,21.7143
2022-11-22T15:11:02.476Z,21.7143
2022-11-22T15:12:02.535Z,19.2143
2022-11-22T15:13:02.541Z,18.3571
2022-11-22T15:14:02.575Z,16.7143
